Terminal Aerodrome Forecast
Issued by NWS

Home | Current Version | Previous Version | Text Only | Print | Product List | Glossary On
Versions: 1 2 3 4 5 6 7 8 9 10 11 12 13 14 15 16 17 18 19 20 21 22 23
927
FTUS43 KIND 231720
TAFLAF
TAF
KLAF 231720Z 2318/2418 24005KT P6SM SCT040 BKN070
     FM232300 VRB03KT P6SM SCT040
     FM240100 00000KT P6SM SCT250
     FM240600 VRB03KT 2SM BR SCT005 BKN150
     FM241200 19004KT P6SM BKN150
     FM241500 22006KT P6SM SCT030
     FM241700 22009KT P6SM BKN040=

USA.gov is the U.S. government's official web portal to all federal, state and local government web resources and services.